Time;durP1;ratioP1;P1;durP2;ratioP2;P2;SDS_P1;SDS_P2;PMS_P1;PMS_P2;Temp;Humidity;BMP_temperature;BMP_pressure;BME280_temperature;BME280_humidity;BME280_pressure;Samples;Min_cycle;Max_cycle;Signal;HPM_P1;HPM_P2
2023/04/09 00:00:16;;;;;;;;;;;;;;;;;;5132242;28;2194;-39
2023/04/09 00:02:44;;;;;;;;;;;;;;;;;;5132002;28;1965;-40
2023/04/09 00:05:11;;;;;;;;;;;;;;;;;;5132088;28;2072;-40
2023/04/09 00:07:38;;;;;;;;;;;;;;;;;;5131615;28;1516;-41
2023/04/09 00:10:06;;;;;;;;;;;;;;;;;;5131802;28;2329;-38
2023/04/09 00:12:34;;;;;;;;;;;;;;;;;;5131994;28;2105;-46
2023/04/09 00:15:01;;;;;;;;;;;;;;;;;;5131538;28;2157;-39
2023/04/09 00:17:29;;;;;;;;;;;;;;;;;;5131477;28;1892;-43
2023/04/09 00:19:56;;;;;;;;;;;;;;;;;;5131933;28;1853;-39
2023/04/09 00:22:23;;;;;;;;;;;;;;;;;;5131608;28;2131;-42
2023/04/09 00:24:51;;;;;;;;;;;;;;;;;;5131564;28;1847;-44
2023/04/09 00:27:18;;;;;;;;;;;;;;;;;;5131629;28;1702;-44
2023/04/09 00:29:46;;;;;;;;;;;;;;;;;;5131644;28;1743;-40
2023/04/09 00:32:14;;;;;;;;;;;;;;;;;;5113477;28;1995;-45
2023/04/09 00:34:41;;;;;;;;;;;;;;;;;;5131682;28;1592;-38
2023/04/09 00:37:09;;;;;;;;;;;;;;;;;;5113022;28;1999;-38
2023/04/09 00:39:36;;;;;;;;;;;;;;;;;;5112750;28;1673;-41
2023/04/09 00:42:03;;;;;;;;;;;;;;;;;;5131115;28;2316;-40
2023/04/09 00:44:30;;;;;;;;;;;;;;;;;;5131512;28;1795;-39
2023/04/09 00:46:58;;;;;;;;;;;;;;;;;;5112878;28;2032;-42
2023/04/09 00:49:26;;;;;;;;;;;;;;;;;;5131287;28;1760;-39
2023/04/09 00:51:54;;;;;;;;;;;;;;;;;;5113039;28;1815;-39
2023/04/09 00:54:21;;;;;;;;;;;;;;;;;;5130872;28;1989;-39
2023/04/09 00:56:52;;;;;;;;;;;;;;;;;;5145407;27;1927;-39
2023/04/09 00:59:19;;;;;;;;;;;;;;;;;;5116240;27;2182;-44
2023/04/09 01:01:46;;;;;;;;;;;;;;;;;;5152074;27;1904;-40
2023/04/09 01:04:14;;;;;;;;;;;;;;;;;;5134094;27;2142;-39
2023/04/09 01:06:41;;;;;;;;;;;;;;;;;;5155531;27;2246;-39
2023/04/09 01:09:15;;;;;;;;;;;;;;;;;;5156085;27;1666;-39
2023/04/09 01:11:45;;;;;;;;;;;;;;;;;;5155616;27;1896;-41
2023/04/09 01:14:26;;;;;;;;;;;;;;;;;;5136802;27;1990;-38
2023/04/09 01:16:57;;;;;;;;;;;;;;;;;;5136564;27;1840;-39
2023/04/09 01:19:41;;;;;;;;;;;;;;;;;;5136804;27;1931;-38
2023/04/09 01:22:22;;;;;;;;;;;;;;;;;;5155170;27;1882;-39
2023/04/09 01:25:13;;;;;;;;;;;;;;;;;;5136585;27;1963;-39
2023/04/09 01:27:55;;;;;;;;;;;;;;;;;;5129425;27;2168;-39
2023/04/09 01:30:24;;;;;;;;;;;;;;;;;;5116089;27;1660;-41
2023/04/09 01:32:52;;;;;;;;;;;;;;;;;;5134219;27;1972;-44
2023/04/09 01:35:20;;;;;;;;;;;;;;;;;;5116192;27;1859;-47
2023/04/09 01:37:48;;;;;;;;;;;;;;;;;;5134433;27;1771;-39
2023/04/09 01:40:15;;;;;;;;;;;;;;;;;;5115937;27;1889;-43
2023/04/09 01:42:44;;;;;;;;;;;;;;;;;;5134403;27;1992;-39
2023/04/09 01:45:12;;;;;;;;;;;;;;;;;;5115822;27;1959;-39
2023/04/09 01:47:40;;;;;;;;;;;;;;;;;;5115771;27;2125;-39
2023/04/09 01:50:07;;;;;;;;;;;;;;;;;;5134290;27;1634;-37
2023/04/09 01:52:35;;;;;;;;;;;;;;;;;;5115572;27;1858;-42
2023/04/09 01:55:03;;;;;;;;;;;;;;;;;;5133868;27;1614;-39
2023/04/09 01:57:32;;;;;;;;;;;;;;;;;;5133768;27;2157;-41
2023/04/09 01:59:59;;;;;;;;;;;;;;;;;;5115375;27;2330;-39
2023/04/09 02:02:40;;;;;;;;;;;;;;;;;;5115274;27;2212;-39
2023/04/09 02:05:10;;;;;;;;;;;;;;;;;;5115443;27;2091;-39
2023/04/09 02:07:41;;;;;;;;;;;;;;;;;;5134032;27;1453;-41
2023/04/09 02:10:10;;;;;;;;;;;;;;;;;;5133520;27;2163;-39
2023/04/09 02:12:40;;;;;;;;;;;;;;;;;;5133673;27;1743;-39
2023/04/09 02:15:08;;;;;;;;;;;;;;;;;;5114698;27;1896;-43
2023/04/09 02:17:38;;;;;;;;;;;;;;;;;;5115239;27;1951;-39
2023/04/09 02:20:06;;;;;;;;;;;;;;;;;;5114999;27;2214;-49
2023/04/09 02:22:33;;;;;;;;;;;;;;;;;;5133207;27;2153;-39
2023/04/09 02:25:00;;;;;;;;;;;;;;;;;;5133616;27;2097;-42
2023/04/09 02:27:28;;;;;;;;;;;;;;;;;;5133407;27;1798;-49
2023/04/09 02:29:55;;;;;;;;;;;;;;;;;;5133172;27;2115;-49
2023/04/09 02:32:23;;;;;;;;;;;;;;;;;;5133613;27;2025;-45
2023/04/09 02:34:50;;;;;;;;;;;;;;;;;;5133198;27;1603;-51
2023/04/09 02:37:18;;;;;;;;;;;;;;;;;;5133077;27;1874;-40
2023/04/09 02:39:46;;;;;;;;;;;;;;;;;;5132922;27;1776;-43
2023/04/09 02:42:13;;;;;;;;;;;;;;;;;;5132984;27;2171;-39
2023/04/09 02:44:41;;;;;;;;;;;;;;;;;;5132981;27;2078;-39
2023/04/09 02:47:08;;;;;;;;;;;;;;;;;;5132971;27;1848;-39
2023/04/09 02:49:37;;;;;;;;;;;;;;;;;;5114630;27;2147;-40
2023/04/09 02:52:05;;;;;;;;;;;;;;;;;;5132796;27;1884;-43
2023/04/09 02:54:32;;;;;;;;;;;;;;;;;;5132037;27;2237;-39
2023/04/09 02:56:59;;;;;;;;;;;;;;;;;;5125544;27;2031;-42
2023/04/09 02:59:27;;;;;;;;;;;;;;;;;;5132918;27;2308;-37
2023/04/09 03:01:54;;;;;;;;;;;;;;;;;;5133003;27;1917;-41
2023/04/09 03:04:22;;;;;;;;;;;;;;;;;;5114838;27;1903;-43
2023/04/09 03:06:50;;;;;;;;;;;;;;;;;;5114474;27;1779;-39
2023/04/09 03:09:17;;;;;;;;;;;;;;;;;;5114325;27;2042;-43
2023/04/09 03:11:45;;;;;;;;;;;;;;;;;;5132684;27;1851;-39
2023/04/09 03:14:12;;;;;;;;;;;;;;;;;;5132317;27;2060;-39
2023/04/09 03:16:40;;;;;;;;;;;;;;;;;;5132607;27;1786;-39
2023/04/09 03:19:07;;;;;;;;;;;;;;;;;;5132289;27;1648;-40
2023/04/09 03:21:35;;;;;;;;;;;;;;;;;;5113566;27;1999;-40
2023/04/09 03:24:04;;;;;;;;;;;;;;;;;;5096959;27;2194;-39
2023/04/09 03:26:36;;;;;;;;;;;;;;;;;;5132007;27;2178;-40
2023/04/09 03:29:05;;;;;;;;;;;;;;;;;;5130779;27;2086;-39
2023/04/09 03:31:33;;;;;;;;;;;;;;;;;;5132344;27;1872;-39
2023/04/09 03:34:00;;;;;;;;;;;;;;;;;;5132085;27;2037;-40
2023/04/09 03:36:30;;;;;;;;;;;;;;;;;;5130925;27;1850;-39
2023/04/09 03:39:01;;;;;;;;;;;;;;;;;;5130889;27;1995;-41
2023/04/09 03:41:35;;;;;;;;;;;;;;;;;;5130723;27;2096;-44
2023/04/09 03:44:07;;;;;;;;;;;;;;;;;;5130619;27;1811;-42
2023/04/09 03:46:45;;;;;;;;;;;;;;;;;;5130685;27;1592;-45
2023/04/09 03:49:16;;;;;;;;;;;;;;;;;;5114173;27;1805;-43
2023/04/09 03:51:44;;;;;;;;;;;;;;;;;;5130581;27;2020;-42
2023/04/09 03:54:11;;;;;;;;;;;;;;;;;;5130669;27;1893;-42
2023/04/09 03:56:40;;;;;;;;;;;;;;;;;;5139444;27;1943;-40
2023/04/09 03:59:11;;;;;;;;;;;;;;;;;;5113306;28;1850;-43
2023/04/09 04:01:41;;;;;;;;;;;;;;;;;;5112979;28;1897;-39
2023/04/09 04:04:08;;;;;;;;;;;;;;;;;;5113473;28;2185;-39
2023/04/09 04:06:42;;;;;;;;;;;;;;;;;;5113372;28;1627;-39
2023/04/09 04:09:44;;;;;;;;;;;;;;;;;;5123560;28;1738;-40
2023/04/09 04:12:15;;;;;;;;;;;;;;;;;;5113194;28;1918;-42
2023/04/09 04:14:58;;;;;;;;;;;;;;;;;;5113393;28;1384;-42
2023/04/09 04:17:32;;;;;;;;;;;;;;;;;;5113323;28;2238;-40
2023/04/09 04:20:02;;;;;;;;;;;;;;;;;;5113058;28;2087;-47
2023/04/09 04:22:36;;;;;;;;;;;;;;;;;;5096580;28;2099;-43
2023/04/09 04:25:04;;;;;;;;;;;;;;;;;;5113276;28;1784;-42
2023/04/09 04:27:31;;;;;;;;;;;;;;;;;;5131589;28;1671;-45
2023/04/09 04:30:00;;;;;;;;;;;;;;;;;;5146578;27;2356;-40
2023/04/09 04:32:41;;;;;;;;;;;;;;;;;;5113099;28;2025;-40
2023/04/09 04:35:10;;;;;;;;;;;;;;;;;;5112960;28;2589;-48
2023/04/09 04:37:39;;;;;;;;;;;;;;;;;;5113090;28;1616;-41
2023/04/09 04:40:07;;;;;;;;;;;;;;;;;;5135075;27;2026;-44
2023/04/09 04:42:39;;;;;;;;;;;;;;;;;;5116964;27;2036;-44
2023/04/09 04:45:10;;;;;;;;;;;;;;;;;;5117009;27;1958;-40
2023/04/09 04:47:48;;;;;;;;;;;;;;;;;;5116790;27;2096;-44
2023/04/09 04:50:15;;;;;;;;;;;;;;;;;;5135309;27;2081;-39
2023/04/09 04:53:02;;;;;;;;;;;;;;;;;;5135657;27;1529;-40
2023/04/09 04:55:38;;;;;;;;;;;;;;;;;;5119945;27;2130;-39
2023/04/09 04:58:08;;;;;;;;;;;;;;;;;;5137302;27;1695;-41
2023/04/09 05:00:52;;;;;;;;;;;;;;;;;;5137069;27;2181;-41
2023/04/09 05:03:20;;;;;;;;;;;;;;;;;;5137116;27;1910;-48
2023/04/09 05:06:00;;;;;;;;;;;;;;;;;;5155663;27;1628;-42
2023/04/09 05:08:35;;;;;;;;;;;;;;;;;;5137227;27;2255;-44
2023/04/09 05:11:02;;;;;;;;;;;;;;;;;;5155941;27;2494;-41
2023/04/09 05:13:34;;;;;;;;;;;;;;;;;;5137345;27;1998;-40
2023/04/09 05:16:05;;;;;;;;;;;;;;;;;;5137009;27;2070;-40
2023/04/09 05:18:35;;;;;;;;;;;;;;;;;;5133253;27;1634;-40
2023/04/09 05:21:02;;;;;;;;;;;;;;;;;;5134801;27;1935;-43
2023/04/09 05:23:31;;;;;;;;;;;;;;;;;;5116556;27;1974;-46
2023/04/09 05:25:59;;;;;;;;;;;;;;;;;;5134431;27;2001;-44
2023/04/09 05:28:36;;;;;;;;;;;;;;;;;;5116392;27;2035;-47
2023/04/09 05:31:14;;;;;;;;;;;;;;;;;;5115971;27;1712;-52
2023/04/09 05:33:49;;;;;;;;;;;;;;;;;;5115839;27;2025;-43
2023/04/09 05:36:22;;;;;;;;;;;;;;;;;;5134587;27;1700;-51
2023/04/09 05:38:50;;;;;;;;;;;;;;;;;;5115700;27;2182;-51
2023/04/09 05:41:18;;;;;;;;;;;;;;;;;;5115790;27;1858;-45
2023/04/09 05:44:15;;;;;;;;;;;;;;;;;;5115805;27;1917;-41
2023/04/09 05:46:42;;;;;;;;;;;;;;;;;;5115584;27;1857;-47
2023/04/09 05:49:12;;;;;;;;;;;;;;;;;;5115596;27;2119;-40
2023/04/09 05:51:42;;;;;;;;;;;;;;;;;;5115052;27;1931;-43
2023/04/09 05:54:10;;;;;;;;;;;;;;;;;;5115493;27;1963;-42
2023/04/09 05:56:37;;;;;;;;;;;;;;;;;;5145877;27;2051;-41
2023/04/09 05:59:04;;;;;;;;;;;;;;;;;;5136406;27;2440;-42
2023/04/09 06:01:32;;;;;;;;;;;;;;;;;;5136214;27;2330;-48
2023/04/09 06:03:59;;;;;;;;;;;;;;;;;;5154436;27;1910;-49
2023/04/09 06:06:29;;;;;;;;;;;;;;;;;;5136256;27;1639;-43
2023/04/09 06:08:56;;;;;;;;;;;;;;;;;;5132255;27;1996;-42
2023/04/09 06:11:23;;;;;;;;;;;;;;;;;;5133918;27;2308;-45
2023/04/09 06:13:50;;;;;;;;;;;;;;;;;;5133683;27;1955;-41
2023/04/09 06:16:18;;;;;;;;;;;;;;;;;;5133515;27;2283;-40
2023/04/09 06:18:45;;;;;;;;;;;;;;;;;;5133468;27;2160;-44
2023/04/09 06:21:13;;;;;;;;;;;;;;;;;;5133240;27;1964;-41
2023/04/09 06:23:40;;;;;;;;;;;;;;;;;;5133290;27;1991;-43
2023/04/09 06:26:07;;;;;;;;;;;;;;;;;;5133781;27;2195;-40
2023/04/09 06:28:36;;;;;;;;;;;;;;;;;;5133812;27;1840;-41
2023/04/09 06:31:03;;;;;;;;;;;;;;;;;;5133246;27;1955;-43
2023/04/09 06:33:30;;;;;;;;;;;;;;;;;;5133324;27;1701;-51
2023/04/09 06:35:57;;;;;;;;;;;;;;;;;;5114840;27;2261;-44
2023/04/09 06:38:25;;;;;;;;;;;;;;;;;;5133276;27;1971;-45
2023/04/09 06:40:52;;;;;;;;;;;;;;;;;;5133094;27;2347;-40
2023/04/09 06:43:19;;;;;;;;;;;;;;;;;;5132851;27;2197;-44
2023/04/09 06:45:49;;;;;;;;;;;;;;;;;;5114705;27;2010;-43
2023/04/09 06:48:16;;;;;;;;;;;;;;;;;;5132663;27;2174;-40
2023/04/09 06:50:44;;;;;;;;;;;;;;;;;;5133211;27;1970;-40
2023/04/09 06:53:11;;;;;;;;;;;;;;;;;;5132985;27;1603;-45
2023/04/09 06:55:38;;;;;;;;;;;;;;;;;;5136446;27;2238;-45
2023/04/09 06:58:06;;;;;;;;;;;;;;;;;;5153873;27;1938;-56
2023/04/09 07:00:33;;;;;;;;;;;;;;;;;;5153198;27;1979;-44
2023/04/09 07:03:00;;;;;;;;;;;;;;;;;;5152556;27;2058;-46
2023/04/09 07:05:29;;;;;;;;;;;;;;;;;;5153400;27;1769;-45
2023/04/09 07:07:56;;;;;;;;;;;;;;;;;;5153367;27;2263;-40
2023/04/09 07:10:25;;;;;;;;;;;;;;;;;;5153238;27;2456;-41
2023/04/09 07:12:52;;;;;;;;;;;;;;;;;;5153327;27;2105;-43
2023/04/09 07:15:19;;;;;;;;;;;;;;;;;;5153096;27;1778;-46
2023/04/09 07:17:47;;;;;;;;;;;;;;;;;;5153294;27;2255;-43
2023/04/09 07:20:14;;;;;;;;;;;;;;;;;;5152783;27;1777;-45
2023/04/09 07:22:41;;;;;;;;;;;;;;;;;;5153080;27;1906;-45
2023/04/09 07:25:09;;;;;;;;;;;;;;;;;;5134759;27;2193;-49
2023/04/09 07:27:36;;;;;;;;;;;;;;;;;;5152993;27;1952;-49
2023/04/09 07:30:03;;;;;;;;;;;;;;;;;;5152872;27;1681;-42
2023/04/09 07:32:30;;;;;;;;;;;;;;;;;;5152906;27;1965;-46
2023/04/09 07:34:58;;;;;;;;;;;;;;;;;;5152729;27;2009;-46
2023/04/09 07:37:26;;;;;;;;;;;;;;;;;;5152773;27;2336;-48
2023/04/09 07:39:53;;;;;;;;;;;;;;;;;;5152950;27;1838;-45
2023/04/09 07:42:20;;;;;;;;;;;;;;;;;;5139924;27;1703;-49
2023/04/09 07:44:47;;;;;;;;;;;;;;;;;;5131847;27;1905;-45
2023/04/09 07:47:15;;;;;;;;;;;;;;;;;;5131713;27;1375;-47
2023/04/09 07:49:42;;;;;;;;;;;;;;;;;;5131879;27;2144;-51
2023/04/09 07:52:10;;;;;;;;;;;;;;;;;;5132325;27;1591;-47
2023/04/09 07:54:37;;;;;;;;;;;;;;;;;;5132035;27;1794;-44
2023/04/09 07:57:04;;;;;;;;;;;;;;;;;;5131288;27;2199;-43
2023/04/09 07:59:31;;;;;;;;;;;;;;;;;;5131940;27;1995;-48
2023/04/09 08:01:59;;;;;;;;;;;;;;;;;;5131663;28;1851;-50
2023/04/09 08:04:26;;;;;;;;;;;;;;;;;;5131719;28;2098;-47
2023/04/09 08:06:54;;;;;;;;;;;;;;;;;;5113413;28;1678;-49
2023/04/09 08:09:21;;;;;;;;;;;;;;;;;;5131572;28;2246;-47
2023/04/09 08:11:48;;;;;;;;;;;;;;;;;;5131725;28;1465;-47
2023/04/09 08:14:16;;;;;;;;;;;;;;;;;;5134273;27;1893;-41
2023/04/09 08:16:45;;;;;;;;;;;;;;;;;;5136036;27;1928;-48
2023/04/09 08:19:14;;;;;;;;;;;;;;;;;;5135633;27;1721;-44
2023/04/09 08:21:42;;;;;;;;;;;;;;;;;;5135952;27;2253;-43
2023/04/09 08:24:10;;;;;;;;;;;;;;;;;;5135469;27;1976;-51
2023/04/09 08:26:38;;;;;;;;;;;;;;;;;;5135676;27;1768;-41
2023/04/09 08:29:06;;;;;;;;;;;;;;;;;;5136027;27;1850;-53
2023/04/09 08:31:33;;;;;;;;;;;;;;;;;;5135747;27;1487;-42
2023/04/09 08:34:00;;;;;;;;;;;;;;;;;;5135806;27;2002;-49
2023/04/09 08:36:28;;;;;;;;;;;;;;;;;;5135675;27;1624;-43
2023/04/09 08:38:55;;;;;;;;;;;;;;;;;;5135532;27;2085;-46
2023/04/09 08:41:24;;;;;;;;;;;;;;;;;;5135572;27;2018;-47
2023/04/09 08:43:51;;;;;;;;;;;;;;;;;;5135478;27;1974;-43
2023/04/09 08:46:22;;;;;;;;;;;;;;;;;;5135344;27;1963;-47
2023/04/09 08:48:50;;;;;;;;;;;;;;;;;;5135225;27;1683;-46
2023/04/09 08:51:18;;;;;;;;;;;;;;;;;;5135361;27;2308;-45
2023/04/09 08:53:52;;;;;;;;;;;;;;;;;;5135452;27;1950;-42
2023/04/09 08:56:20;;;;;;;;;;;;;;;;;;5116795;27;2097;-45
2023/04/09 08:58:50;;;;;;;;;;;;;;;;;;5135389;27;1647;-50
2023/04/09 09:01:19;;;;;;;;;;;;;;;;;;5135353;27;1730;-40
2023/04/09 09:03:56;;;;;;;;;;;;;;;;;;5134932;27;2020;-41
2023/04/09 09:06:26;;;;;;;;;;;;;;;;;;5134919;27;1696;-42
2023/04/09 09:09:12;;;;;;;;;;;;;;;;;;5134848;27;2090;-41
2023/04/09 09:11:44;;;;;;;;;;;;;;;;;;5135473;27;1864;-41
2023/04/09 09:14:12;;;;;;;;;;;;;;;;;;5134798;27;1898;-40
2023/04/09 09:16:42;;;;;;;;;;;;;;;;;;5134869;27;1881;-40
2023/04/09 09:19:26;;;;;;;;;;;;;;;;;;5135171;27;1708;-40
2023/04/09 09:21:55;;;;;;;;;;;;;;;;;;5134569;27;1468;-45
2023/04/09 09:24:22;;;;;;;;;;;;;;;;;;5134338;27;2172;-43
2023/04/09 09:26:50;;;;;;;;;;;;;;;;;;5134195;27;2166;-40
2023/04/09 09:29:18;;;;;;;;;;;;;;;;;;5134757;27;2247;-43
2023/04/09 09:31:48;;;;;;;;;;;;;;;;;;5134552;27;1815;-53
2023/04/09 09:34:16;;;;;;;;;;;;;;;;;;5134485;27;1898;-46
2023/04/09 09:36:44;;;;;;;;;;;;;;;;;;5115991;27;2124;-42
2023/04/09 09:39:13;;;;;;;;;;;;;;;;;;5136211;27;2243;-41
2023/04/09 09:41:41;;;;;;;;;;;;;;;;;;5154990;27;2143;-40
2023/04/09 09:44:09;;;;;;;;;;;;;;;;;;5154818;27;1983;-43
2023/04/09 09:46:37;;;;;;;;;;;;;;;;;;5154822;27;2161;-41
2023/04/09 09:49:05;;;;;;;;;;;;;;;;;;5155015;27;2155;-48
2023/04/09 09:51:33;;;;;;;;;;;;;;;;;;5155126;27;1765;-50
2023/04/09 09:54:00;;;;;;;;;;;;;;;;;;5154615;27;2290;-51
2023/04/09 09:56:33;;;;;;;;;;;;;;;;;;5144488;27;1919;-48
2023/04/09 09:59:12;;;;;;;;;;;;;;;;;;5115350;27;2021;-44
2023/04/09 10:01:40;;;;;;;;;;;;;;;;;;5133950;27;1897;-44
2023/04/09 10:04:12;;;;;;;;;;;;;;;;;;5133855;27;2039;-47
2023/04/09 10:06:41;;;;;;;;;;;;;;;;;;5133657;27;2073;-44
2023/04/09 10:09:09;;;;;;;;;;;;;;;;;;5133826;27;2005;-40
2023/04/09 10:11:37;;;;;;;;;;;;;;;;;;5133932;27;1954;-42
2023/04/09 10:14:04;;;;;;;;;;;;;;;;;;5133801;27;1994;-40
2023/04/09 10:16:31;;;;;;;;;;;;;;;;;;5133821;27;1825;-41
2023/04/09 10:19:00;;;;;;;;;;;;;;;;;;5133571;27;1984;-41
2023/04/09 10:21:52;;;;;;;;;;;;;;;;;;5133743;27;1762;-40
2023/04/09 10:24:20;;;;;;;;;;;;;;;;;;5128931;27;1980;-40
2023/04/09 10:26:47;;;;;;;;;;;;;;;;;;5133520;27;1900;-43
2023/04/09 10:29:15;;;;;;;;;;;;;;;;;;5132978;27;2181;-43
2023/04/09 10:31:47;;;;;;;;;;;;;;;;;;5152033;27;1851;-49
2023/04/09 10:34:15;;;;;;;;;;;;;;;;;;5153935;27;1919;-41
2023/04/09 10:36:43;;;;;;;;;;;;;;;;;;5153958;27;1791;-42
2023/04/09 10:39:12;;;;;;;;;;;;;;;;;;5135452;27;2472;-41
2023/04/09 10:41:40;;;;;;;;;;;;;;;;;;5153908;27;1701;-42
2023/04/09 10:44:20;;;;;;;;;;;;;;;;;;5153570;27;1970;-41
2023/04/09 10:46:51;;;;;;;;;;;;;;;;;;5153531;27;1872;-43
2023/04/09 10:49:19;;;;;;;;;;;;;;;;;;5153775;27;1635;-43
2023/04/09 10:52:07;;;;;;;;;;;;;;;;;;5153889;27;2007;-42
2023/04/09 10:54:37;;;;;;;;;;;;;;;;;;5153653;27;1213;-41
2023/04/09 10:57:10;;;;;;;;;;;;;;;;;;5137733;27;2064;-43
2023/04/09 10:59:41;;;;;;;;;;;;;;;;;;5133302;27;1856;-45
2023/04/09 11:02:12;;;;;;;;;;;;;;;;;;5132662;27;2126;-41
2023/04/09 11:05:00;;;;;;;;;;;;;;;;;;5132668;27;1914;-40
2023/04/09 11:07:29;;;;;;;;;;;;;;;;;;5132823;27;1721;-40
2023/04/09 11:09:56;;;;;;;;;;;;;;;;;;5132706;27;1774;-41
2023/04/09 11:12:23;;;;;;;;;;;;;;;;;;5114365;27;2104;-40
2023/04/09 11:14:51;;;;;;;;;;;;;;;;;;5133100;27;2102;-42
2023/04/09 11:17:18;;;;;;;;;;;;;;;;;;5132233;27;1807;-41
2023/04/09 11:19:46;;;;;;;;;;;;;;;;;;5114215;27;2175;-40
2023/04/09 11:22:14;;;;;;;;;;;;;;;;;;5132241;27;1441;-40
2023/04/09 11:24:41;;;;;;;;;;;;;;;;;;5132308;27;1917;-40
2023/04/09 11:27:09;;;;;;;;;;;;;;;;;;5132369;27;1818;-40
2023/04/09 11:29:36;;;;;;;;;;;;;;;;;;5132077;27;2014;-47
2023/04/09 11:32:06;;;;;;;;;;;;;;;;;;5132360;27;1947;-42
2023/04/09 11:34:33;;;;;;;;;;;;;;;;;;5132181;27;2137;-44
2023/04/09 11:37:05;;;;;;;;;;;;;;;;;;5132285;27;2038;-45
2023/04/09 11:39:35;;;;;;;;;;;;;;;;;;5132087;27;1697;-40
2023/04/09 11:42:02;;;;;;;;;;;;;;;;;;5132067;27;1950;-44
2023/04/09 11:44:30;;;;;;;;;;;;;;;;;;5132216;27;2112;-42
2023/04/09 11:46:57;;;;;;;;;;;;;;;;;;5132234;27;1931;-40
2023/04/09 11:49:25;;;;;;;;;;;;;;;;;;5131996;27;1909;-39
2023/04/09 11:51:52;;;;;;;;;;;;;;;;;;5132014;27;1273;-41
2023/04/09 11:54:19;;;;;;;;;;;;;;;;;;5131892;27;1908;-44
2023/04/09 11:56:54;;;;;;;;;;;;;;;;;;5131838;27;2201;-44
2023/04/09 11:59:21;;;;;;;;;;;;;;;;;;5131999;27;2072;-41
2023/04/09 12:01:50;;;;;;;;;;;;;;;;;;5132334;27;2339;-41
2023/04/09 12:04:22;;;;;;;;;;;;;;;;;;5132011;28;2103;-46
2023/04/09 12:06:50;;;;;;;;;;;;;;;;;;5131928;28;1890;-40
2023/04/09 12:09:17;;;;;;;;;;;;;;;;;;5131880;28;1832;-45
2023/04/09 12:11:45;;;;;;;;;;;;;;;;;;5131558;28;1943;-43
2023/04/09 12:14:13;;;;;;;;;;;;;;;;;;5132008;28;2096;-43
2023/04/09 12:16:42;;;;;;;;;;;;;;;;;;5131924;28;1448;-41
2023/04/09 12:19:10;;;;;;;;;;;;;;;;;;5132045;28;1920;-40
2023/04/09 12:22:04;;;;;;;;;;;;;;;;;;5131707;28;1857;-48
2023/04/09 12:24:31;;;;;;;;;;;;;;;;;;5130135;28;1918;-40
2023/04/09 12:26:58;;;;;;;;;;;;;;;;;;5131964;28;1775;-41
2023/04/09 12:29:27;;;;;;;;;;;;;;;;;;5131642;28;1971;-45
2023/04/09 12:31:54;;;;;;;;;;;;;;;;;;5131555;28;2179;-41
2023/04/09 12:34:22;;;;;;;;;;;;;;;;;;5131350;28;1902;-40
2023/04/09 12:36:49;;;;;;;;;;;;;;;;;;5131543;28;1857;-42
2023/04/09 12:39:17;;;;;;;;;;;;;;;;;;5113594;28;2194;-40
2023/04/09 12:41:44;;;;;;;;;;;;;;;;;;5131456;28;1791;-40
2023/04/09 12:44:12;;;;;;;;;;;;;;;;;;5131546;28;1972;-39
2023/04/09 12:46:39;;;;;;;;;;;;;;;;;;5131201;28;1688;-41
2023/04/09 12:49:06;;;;;;;;;;;;;;;;;;5131503;28;1701;-40
2023/04/09 12:51:33;;;;;;;;;;;;;;;;;;5131833;28;2182;-41
2023/04/09 12:54:02;;;;;;;;;;;;;;;;;;5131582;28;1963;-40
2023/04/09 12:56:30;;;;;;;;;;;;;;;;;;5142319;27;2071;-41
2023/04/09 12:58:57;;;;;;;;;;;;;;;;;;5151824;27;1684;-54
2023/04/09 13:01:24;;;;;;;;;;;;;;;;;;5154487;27;2088;-42
2023/04/09 13:03:52;;;;;;;;;;;;;;;;;;5155719;27;1913;-41
2023/04/09 13:06:21;;;;;;;;;;;;;;;;;;5155678;27;2056;-41
2023/04/09 13:08:48;;;;;;;;;;;;;;;;;;5155841;27;1892;-40
2023/04/09 13:11:15;;;;;;;;;;;;;;;;;;5155894;27;1705;-39
2023/04/09 13:13:42;;;;;;;;;;;;;;;;;;5155201;27;2130;-39
2023/04/09 13:16:09;;;;;;;;;;;;;;;;;;5155527;27;1890;-39
2023/04/09 13:18:37;;;;;;;;;;;;;;;;;;5155459;27;2085;-40
2023/04/09 13:21:04;;;;;;;;;;;;;;;;;;5155497;27;1825;-40
2023/04/09 13:23:31;;;;;;;;;;;;;;;;;;5155709;27;1845;-40
2023/04/09 13:26:00;;;;;;;;;;;;;;;;;;5155317;27;1915;-40
2023/04/09 13:28:27;;;;;;;;;;;;;;;;;;5136805;27;1742;-39
2023/04/09 13:30:54;;;;;;;;;;;;;;;;;;5155410;27;2035;-38
2023/04/09 13:33:22;;;;;;;;;;;;;;;;;;5155469;27;1865;-40
2023/04/09 13:35:50;;;;;;;;;;;;;;;;;;5155336;27;1566;-40
2023/04/09 13:38:17;;;;;;;;;;;;;;;;;;5155161;27;2092;-44
2023/04/09 13:40:45;;;;;;;;;;;;;;;;;;5154943;27;1874;-40
2023/04/09 13:43:12;;;;;;;;;;;;;;;;;;5154700;27;1942;-48
2023/04/09 13:45:39;;;;;;;;;;;;;;;;;;5136561;27;2041;-40
2023/04/09 13:48:06;;;;;;;;;;;;;;;;;;5155104;27;1482;-42
2023/04/09 13:50:34;;;;;;;;;;;;;;;;;;5155172;27;1833;-48
2023/04/09 13:53:04;;;;;;;;;;;;;;;;;;5154896;27;1616;-47
2023/04/09 13:55:31;;;;;;;;;;;;;;;;;;5152111;27;1824;-45
2023/04/09 13:57:58;;;;;;;;;;;;;;;;;;5134152;27;1965;-40
2023/04/09 14:00:26;;;;;;;;;;;;;;;;;;5134297;27;1818;-40
2023/04/09 14:02:54;;;;;;;;;;;;;;;;;;5133977;27;2344;-42
2023/04/09 14:05:21;;;;;;;;;;;;;;;;;;5134098;27;2116;-47
2023/04/09 14:07:48;;;;;;;;;;;;;;;;;;5134363;27;2186;-39
2023/04/09 14:10:16;;;;;;;;;;;;;;;;;;5133781;27;1596;-40
2023/04/09 14:12:43;;;;;;;;;;;;;;;;;;5133522;27;1620;-49
2023/04/09 14:15:10;;;;;;;;;;;;;;;;;;5133897;27;1948;-49
2023/04/09 14:17:38;;;;;;;;;;;;;;;;;;5115638;27;1741;-45
2023/04/09 14:20:06;;;;;;;;;;;;;;;;;;5115914;27;2164;-47
2023/04/09 14:22:33;;;;;;;;;;;;;;;;;;5115259;27;2023;-46
2023/04/09 14:25:00;;;;;;;;;;;;;;;;;;5133702;27;1907;-47
2023/04/09 14:27:27;;;;;;;;;;;;;;;;;;5133207;27;2087;-41
2023/04/09 14:29:55;;;;;;;;;;;;;;;;;;5136937;27;1916;-45
2023/04/09 14:32:22;;;;;;;;;;;;;;;;;;5152089;27;1417;-41
2023/04/09 14:34:49;;;;;;;;;;;;;;;;;;5149385;27;2045;-42
2023/04/09 14:37:17;;;;;;;;;;;;;;;;;;5142728;27;1676;-41
2023/04/09 14:39:44;;;;;;;;;;;;;;;;;;5132986;27;2025;-41
2023/04/09 14:42:13;;;;;;;;;;;;;;;;;;5131906;27;2040;-41
2023/04/09 14:44:40;;;;;;;;;;;;;;;;;;5133140;27;1913;-47
2023/04/09 14:47:07;;;;;;;;;;;;;;;;;;5133167;27;1875;-44
2023/04/09 14:49:34;;;;;;;;;;;;;;;;;;5133126;27;1898;-45
2023/04/09 14:52:02;;;;;;;;;;;;;;;;;;5133152;27;1735;-45
2023/04/09 14:54:31;;;;;;;;;;;;;;;;;;5132765;27;1872;-46
2023/04/09 14:57:01;;;;;;;;;;;;;;;;;;5132775;27;2047;-43
2023/04/09 14:59:28;;;;;;;;;;;;;;;;;;5132118;27;2231;-40
2023/04/09 15:01:55;;;;;;;;;;;;;;;;;;5132913;27;1844;-52
2023/04/09 15:04:23;;;;;;;;;;;;;;;;;;5132465;27;1405;-40
2023/04/09 15:06:50;;;;;;;;;;;;;;;;;;5132752;27;2200;-41
2023/04/09 15:09:18;;;;;;;;;;;;;;;;;;5132156;27;1993;-41
2023/04/09 15:11:45;;;;;;;;;;;;;;;;;;5132762;27;1858;-41
2023/04/09 15:14:12;;;;;;;;;;;;;;;;;;5132819;27;1523;-40
2023/04/09 15:16:39;;;;;;;;;;;;;;;;;;5132828;27;1420;-40
2023/04/09 15:19:06;;;;;;;;;;;;;;;;;;5132596;27;1980;-40
2023/04/09 15:21:34;;;;;;;;;;;;;;;;;;5132481;27;1810;-40
2023/04/09 15:24:02;;;;;;;;;;;;;;;;;;5131634;27;2011;-50
2023/04/09 15:26:31;;;;;;;;;;;;;;;;;;5132504;27;1933;-40
2023/04/09 15:29:02;;;;;;;;;;;;;;;;;;5132176;27;1757;-40
2023/04/09 15:31:31;;;;;;;;;;;;;;;;;;5150718;27;2280;-40
2023/04/09 15:33:58;;;;;;;;;;;;;;;;;;5153091;27;2111;-41
2023/04/09 15:36:27;;;;;;;;;;;;;;;;;;5153045;27;2056;-41
2023/04/09 15:38:55;;;;;;;;;;;;;;;;;;5152918;27;2042;-46
2023/04/09 15:41:22;;;;;;;;;;;;;;;;;;5136942;27;2079;-41
2023/04/09 15:43:50;;;;;;;;;;;;;;;;;;5131828;27;2012;-40
2023/04/09 15:46:18;;;;;;;;;;;;;;;;;;5131955;27;2557;-40
2023/04/09 15:48:45;;;;;;;;;;;;;;;;;;5132134;27;1892;-42
2023/04/09 15:51:12;;;;;;;;;;;;;;;;;;5132338;27;1778;-41
2023/04/09 15:53:41;;;;;;;;;;;;;;;;;;5132372;27;1421;-47
2023/04/09 15:56:10;;;;;;;;;;;;;;;;;;5132010;27;1816;-42
2023/04/09 15:58:37;;;;;;;;;;;;;;;;;;5132114;27;1953;-41
2023/04/09 16:01:05;;;;;;;;;;;;;;;;;;5131793;27;1948;-43
2023/04/09 16:03:38;;;;;;;;;;;;;;;;;;5132259;27;2050;-40
2023/04/09 16:06:11;;;;;;;;;;;;;;;;;;5131747;28;1967;-46
2023/04/09 16:08:39;;;;;;;;;;;;;;;;;;5131722;28;1977;-41
2023/04/09 16:11:07;;;;;;;;;;;;;;;;;;5131413;28;2029;-40
2023/04/09 16:13:34;;;;;;;;;;;;;;;;;;5131928;28;1695;-40
2023/04/09 16:16:03;;;;;;;;;;;;;;;;;;5132021;28;1406;-41
2023/04/09 16:18:32;;;;;;;;;;;;;;;;;;5131953;28;1372;-40
2023/04/09 16:20:59;;;;;;;;;;;;;;;;;;5131884;28;2158;-39
2023/04/09 16:23:26;;;;;;;;;;;;;;;;;;5131762;28;1860;-39
2023/04/09 16:25:56;;;;;;;;;;;;;;;;;;5131524;28;2051;-39
2023/04/09 16:28:24;;;;;;;;;;;;;;;;;;5132109;28;2140;-40
2023/04/09 16:30:51;;;;;;;;;;;;;;;;;;5131741;28;1723;-41
2023/04/09 16:33:19;;;;;;;;;;;;;;;;;;5131568;28;2022;-42
2023/04/09 16:35:46;;;;;;;;;;;;;;;;;;5134803;27;1731;-40
2023/04/09 16:38:13;;;;;;;;;;;;;;;;;;5135751;27;1744;-40
2023/04/09 16:40:40;;;;;;;;;;;;;;;;;;5135609;27;1670;-40
2023/04/09 16:43:07;;;;;;;;;;;;;;;;;;5117105;27;1816;-42
2023/04/09 16:45:36;;;;;;;;;;;;;;;;;;5135235;27;1976;-39
2023/04/09 16:48:09;;;;;;;;;;;;;;;;;;5135271;27;1469;-49
2023/04/09 16:50:37;;;;;;;;;;;;;;;;;;5134832;27;1670;-40
2023/04/09 16:53:04;;;;;;;;;;;;;;;;;;5134499;27;1806;-39
2023/04/09 16:55:32;;;;;;;;;;;;;;;;;;5142253;27;1722;-42
2023/04/09 16:58:02;;;;;;;;;;;;;;;;;;5134887;27;2089;-39
2023/04/09 17:00:29;;;;;;;;;;;;;;;;;;5135367;27;1615;-40
2023/04/09 17:02:56;;;;;;;;;;;;;;;;;;5135099;27;2098;-38
2023/04/09 17:05:24;;;;;;;;;;;;;;;;;;5135093;27;1911;-39
2023/04/09 17:07:52;;;;;;;;;;;;;;;;;;5135225;27;1567;-40
2023/04/09 17:10:19;;;;;;;;;;;;;;;;;;5135224;27;2301;-40
2023/04/09 17:12:47;;;;;;;;;;;;;;;;;;5146223;27;2242;-39
2023/04/09 17:15:14;;;;;;;;;;;;;;;;;;5155690;27;2055;-39